Time;durP1;ratioP1;P1;durP2;ratioP2;P2;SDS_P1;SDS_P2;PMS_P1;PMS_P2;Temp;Humidity;BMP_temperature;BMP_pressure;BME280_temperature;BME280_humidity;BME280_pressure;Samples;Min_cycle;Max_cycle;Signal;HPM_P1;HPM_P2
2023/07/01 00:02:15;;;;;;;0.10;0.10;;;;;;;13.75;100.00;96047.19;5016039;28;20075;-80
2023/07/01 00:05:01;;;;;;;0.10;0.10;;;;;;;13.76;100.00;96054.16;5015321;28;20122;-81
2023/07/01 00:07:47;;;;;;;0.10;0.10;;;;;;;13.83;100.00;96046.59;5016023;28;20076;-80
2023/07/01 00:10:33;;;;;;;0.10;0.10;;;;;;;13.84;100.00;96045.50;5031083;28;20613;-80
2023/07/01 00:13:19;;;;;;;0.05;0.05;;;;;;;13.86;100.00;96033.41;5032929;28;20041;-79
2023/07/01 00:16:05;;;;;;;0.00;0.00;;;;;;;13.96;100.00;96037.09;5033212;28;20067;-79
2023/07/01 00:18:50;;;;;;;0.00;0.00;;;;;;;14.00;100.00;96028.19;5015590;28;20463;-78
2023/07/01 00:21:36;;;;;;;0.10;0.10;;;;;;;14.06;100.00;96031.66;5031861;28;20432;-79
2023/07/01 00:24:22;;;;;;;0.10;0.10;;;;;;;14.06;100.00;96019.00;5002097;28;20720;-78
2023/07/01 00:27:08;;;;;;;0.00;0.00;;;;;;;14.13;100.00;96026.75;5031519;28;20041;-79
2023/07/01 00:29:54;;;;;;;0.10;0.10;;;;;;;14.19;100.00;96028.31;5001691;28;20041;-78
2023/07/01 00:32:40;;;;;;;0.10;0.10;;;;;;;14.21;100.00;96024.25;5014530;28;20045;-80
2023/07/01 00:35:27;;;;;;;0.00;0.00;;;;;;;14.24;100.00;96017.53;5005808;28;20128;-79
2023/07/01 00:38:13;;;;;;;0.10;0.10;;;;;;;14.32;100.00;96018.78;5020434;28;20054;-79
2023/07/01 00:40:58;;;;;;;0.10;0.10;;;;;;;14.29;100.00;96022.84;5035198;28;20569;-79
2023/07/01 00:43:44;;;;;;;0.10;0.10;;;;;;;14.17;100.00;96020.53;5037233;28;20040;-80
2023/07/01 00:46:32;;;;;;;0.10;0.10;;;;;;;14.12;100.00;96025.16;5037810;28;20089;-80
2023/07/01 00:49:18;;;;;;;0.10;0.10;;;;;;;14.08;100.00;96016.00;5060512;28;20102;-80
2023/07/01 00:52:06;;;;;;;0.10;0.10;;;;;;;14.02;100.00;96006.41;5059530;28;20041;-81
2023/07/01 00:54:52;;;;;;;0.10;0.10;;;;;;;14.06;100.00;96010.94;5050789;28;20056;-80
2023/07/01 00:57:38;;;;;;;0.10;0.10;;;;;;;13.97;100.00;96007.22;5035575;28;20090;-79
2023/07/01 01:00:24;;;;;;;0.10;0.10;;;;;;;13.99;100.00;96005.06;5039088;28;20549;-80
2023/07/01 01:03:21;;;;;;;0.00;0.00;;;;;;;13.93;100.00;95992.75;5068849;28;20036;-79
2023/07/01 01:06:33;;;;;;;0.10;0.10;;;;;;;13.90;100.00;95996.00;5055798;28;20160;-80
2023/07/01 01:09:31;;;;;;;0.10;0.10;;;;;;;13.82;100.00;95994.69;5070261;28;20089;-80
2023/07/01 01:12:19;;;;;;;0.10;0.10;;;;;;;13.65;100.00;95978.94;5070549;28;20050;-79
2023/07/01 01:15:08;;;;;;;0.10;0.10;;;;;;;13.55;100.00;95989.78;5070801;28;20104;-79
2023/07/01 01:17:59;;;;;;;0.10;0.10;;;;;;;13.46;100.00;95988.72;5055588;28;20299;-79
2023/07/01 01:20:48;;;;;;;0.15;0.15;;;;;;;13.40;100.00;95970.25;5056254;28;20050;-80
2023/07/01 01:23:50;;;;;;;0.10;0.10;;;;;;;13.49;100.00;95982.81;5071180;28;20035;-79
2023/07/01 01:26:42;;;;;;;0.10;0.10;;;;;;;13.52;100.00;95982.25;5071639;28;20051;-79
2023/07/01 01:29:28;;;;;;;0.00;0.00;;;;;;;13.53;100.00;95975.78;5054516;28;20505;-80
2023/07/01 01:32:14;;;;;;;0.10;0.10;;;;;;;13.55;100.00;95975.53;5070051;28;20368;-79
2023/07/01 01:35:01;;;;;;;0.10;0.10;;;;;;;13.66;100.00;95971.69;5054927;28;20093;-80
2023/07/01 01:37:54;;;;;;;0.10;0.10;;;;;;;13.75;100.00;95966.50;5068125;28;20039;-79
2023/07/01 01:40:56;;;;;;;0.10;0.10;;;;;;;13.76;100.00;95963.53;5055243;28;20453;-80
2023/07/01 01:44:07;;;;;;;0.10;0.10;;;;;;;13.86;100.00;95968.06;5053302;28;20154;-79
2023/07/01 01:46:55;;;;;;;0.10;0.10;;;;;;;13.91;100.00;95965.31;5056317;28;20971;-80
2023/07/01 01:49:42;;;;;;;0.10;0.10;;;;;;;14.02;100.00;95960.66;5055715;28;20055;-80
2023/07/01 01:52:29;;;;;;;0.10;0.10;;;;;;;14.03;100.00;95956.91;5055713;28;20405;-80
2023/07/01 01:55:16;;;;;;;0.10;0.10;;;;;;;14.13;100.00;95956.81;5053682;28;20580;-80
2023/07/01 01:58:03;;;;;;;0.10;0.10;;;;;;;14.17;100.00;95945.19;5040535;28;20044;-78
2023/07/01 02:00:49;;;;;;;0.10;0.10;;;;;;;14.20;100.00;95946.50;5054858;28;20302;-79
2023/07/01 02:03:36;;;;;;;0.00;0.00;;;;;;;14.30;100.00;95954.47;5069770;28;20048;-79
2023/07/01 02:06:22;;;;;;;0.10;0.10;;;;;;;14.20;100.00;95944.63;5053532;28;20332;-79
2023/07/01 02:09:07;;;;;;;0.10;0.10;;;;;;;14.24;100.00;95936.81;5036708;28;20048;-79
2023/07/01 02:11:54;;;;;;;0.10;0.10;;;;;;;14.30;100.00;95941.03;5048541;28;20715;-79
2023/07/01 02:14:40;;;;;;;0.10;0.10;;;;;;;14.35;100.00;95937.50;5049222;28;20398;-79
2023/07/01 02:17:26;;;;;;;0.10;0.10;;;;;;;14.45;100.00;95932.81;5051934;28;20040;-79
2023/07/01 02:20:12;;;;;;;0.10;0.10;;;;;;;14.39;100.00;95920.47;5065059;28;20036;-79
2023/07/01 02:22:58;;;;;;;0.10;0.10;;;;;;;14.44;100.00;95920.44;5053789;28;20040;-79
2023/07/01 02:25:45;;;;;;;0.10;0.10;;;;;;;14.50;100.00;95926.59;5069408;28;20036;-79
2023/07/01 02:28:31;;;;;;;0.00;0.00;;;;;;;14.52;100.00;95916.34;5069617;28;20047;-80
2023/07/01 02:31:18;;;;;;;0.10;0.10;;;;;;;14.54;100.00;95910.66;5039557;28;20492;-79
2023/07/01 02:34:04;;;;;;;0.08;0.08;;;;;;;14.63;100.00;95917.84;5053220;28;20044;-80
2023/07/01 02:36:50;;;;;;;0.10;0.10;;;;;;;14.61;100.00;95909.22;5054487;28;20044;-79
2023/07/01 02:39:37;;;;;;;0.10;0.10;;;;;;;14.58;100.00;95909.81;5070133;28;20131;-79
2023/07/01 02:42:25;;;;;;;0.10;0.10;;;;;;;14.61;100.00;95914.63;5048576;28;20074;-79
2023/07/01 02:45:11;;;;;;;0.10;0.10;;;;;;;14.63;100.00;95904.38;5069297;28;20113;-79
2023/07/01 02:47:57;;;;;;;0.10;0.10;;;;;;;14.59;100.00;95905.22;5056178;28;20487;-80
2023/07/01 02:50:43;;;;;;;0.10;0.10;;;;;;;14.61;100.00;95911.91;5071579;28;20039;-80
2023/07/01 02:53:28;;;;;;;0.10;0.10;;;;;;;14.65;100.00;95902.19;5056716;28;20642;-80
2023/07/01 02:56:14;;;;;;;0.00;0.00;;;;;;;14.73;100.00;95901.56;5046191;28;20273;-80
2023/07/01 02:59:00;;;;;;;0.10;0.10;;;;;;;14.72;100.00;95894.56;5058054;28;20043;-80
2023/07/01 03:01:46;;;;;;;0.10;0.10;;;;;;;14.74;100.00;95888.91;5056049;28;20509;-80
2023/07/01 03:04:34;;;;;;;0.10;0.10;;;;;;;14.80;100.00;95895.81;5060268;28;20142;-80
2023/07/01 03:07:20;;;;;;;0.10;0.10;;;;;;;14.76;100.00;95889.41;5060693;28;20224;-80
2023/07/01 03:10:06;;;;;;;0.10;0.10;;;;;;;14.82;100.00;95890.94;5056555;28;20123;-80
2023/07/01 03:12:53;;;;;;;0.10;0.10;;;;;;;14.82;100.00;95899.03;5044000;28;20386;-80
2023/07/01 03:15:40;;;;;;;0.10;0.10;;;;;;;14.72;100.00;95883.81;5059024;28;20436;-79
2023/07/01 03:18:26;;;;;;;0.10;0.10;;;;;;;14.75;100.00;95890.50;5057913;28;20040;-79
2023/07/01 03:21:12;;;;;;;0.10;0.10;;;;;;;14.70;100.00;95894.03;5058217;28;20048;-80
2023/07/01 03:23:58;;;;;;;0.10;0.10;;;;;;;14.71;100.00;95876.00;5044678;28;20321;-80
2023/07/01 03:26:44;;;;;;;0.10;0.10;;;;;;;14.72;100.00;95880.31;5058670;28;20089;-80
2023/07/01 03:29:30;;;;;;;0.10;0.10;;;;;;;14.73;100.00;95880.00;5063018;28;20050;-80
2023/07/01 03:32:16;;;;;;;0.10;0.10;;;;;;;14.71;100.00;95882.19;5055880;28;20047;-80
2023/07/01 03:35:02;;;;;;;0.20;0.20;;;;;;;14.69;100.00;95875.47;5052910;28;20414;-80
2023/07/01 03:37:49;;;;;;;0.20;0.20;;;;;;;14.77;100.00;95881.03;5070256;28;20075;-80
2023/07/01 03:40:35;;;;;;;0.10;0.10;;;;;;;14.86;100.00;95885.78;5058019;28;20466;-80
2023/07/01 03:43:21;;;;;;;0.10;0.10;;;;;;;14.77;100.00;95877.53;5056951;28;20036;-80
2023/07/01 03:46:07;;;;;;;0.10;0.10;;;;;;;14.82;100.00;95887.44;5044552;28;20074;-80
2023/07/01 03:48:53;;;;;;;0.10;0.10;;;;;;;14.76;100.00;95884.81;5056248;28;20039;-80
2023/07/01 03:51:38;;;;;;;0.10;0.10;;;;;;;14.77;100.00;95880.22;5057918;28;20089;-80
2023/07/01 03:54:24;;;;;;;0.10;0.10;;;;;;;14.72;100.00;95870.34;5060738;28;20131;-80
2023/07/01 03:57:11;;;;;;;0.10;0.10;;;;;;;14.75;100.00;95867.06;5058316;28;20086;-80
2023/07/01 03:59:57;;;;;;;0.00;0.00;;;;;;;14.68;100.00;95860.41;5056599;28;20040;-79
2023/07/01 04:02:50;;;;;;;0.10;0.10;;;;;;;14.75;100.00;95861.66;5073289;28;20036;-79
2023/07/01 04:05:36;;;;;;;0.10;0.10;;;;;;;14.75;100.00;95866.25;5055750;28;20379;-79
2023/07/01 04:08:22;;;;;;;0.10;0.10;;;;;;;14.74;100.00;95860.06;5071529;28;20197;-79
2023/07/01 04:11:08;;;;;;;0.13;0.13;;;;;;;14.72;100.00;95853.38;5074046;28;20377;-79
2023/07/01 04:13:54;;;;;;;0.20;0.20;;;;;;;14.82;100.00;95849.75;5058755;28;20048;-79
2023/07/01 04:16:40;;;;;;;0.10;0.10;;;;;;;14.77;100.00;95853.28;5073565;28;20058;-79
2023/07/01 04:19:25;;;;;;;0.10;0.10;;;;;;;14.74;100.00;95860.06;5072428;28;20209;-79
2023/07/01 04:22:12;;;;;;;0.10;0.10;;;;;;;14.75;100.00;95852.78;5073932;28;20043;-79
2023/07/01 04:24:58;;;;;;;0.10;0.10;;;;;;;14.78;100.00;95857.59;5072523;28;20467;-80
2023/07/01 04:27:44;;;;;;;0.10;0.10;;;;;;;14.80;100.00;95865.41;5056317;28;20395;-79
2023/07/01 04:30:30;;;;;;;0.10;0.10;;;;;;;14.75;100.00;95858.97;5058974;28;20032;-79
2023/07/01 04:33:16;;;;;;;0.10;0.10;;;;;;;14.54;100.00;95849.53;5072046;28;20051;-79
2023/07/01 04:36:02;;;;;;;0.10;0.10;;;;;;;14.59;100.00;95851.38;5071660;28;21323;-79
2023/07/01 04:38:48;;;;;;;0.10;0.10;;;;;;;14.60;100.00;95853.78;5071242;28;20050;-79
2023/07/01 04:41:34;;;;;;;0.10;0.10;;;;;;;14.55;100.00;95855.72;5072755;28;20061;-79
2023/07/01 04:44:23;;;;;;;0.20;0.20;;;;;;;14.64;100.00;95841.34;5071287;28;20048;-79
2023/07/01 04:47:11;;;;;;;0.10;0.10;;;;;;;14.79;100.00;95837.66;5070896;28;20122;-79
2023/07/01 04:49:57;;;;;;;0.10;0.10;;;;;;;14.71;100.00;95841.81;5073546;28;20071;-79
2023/07/01 04:52:43;;;;;;;0.10;0.10;;;;;;;14.67;100.00;95831.91;5059577;28;20036;-78
2023/07/01 04:55:32;;;;;;;0.10;0.10;;;;;;;14.64;100.00;95827.91;5072319;28;20561;-78
2023/07/01 04:58:18;;;;;;;0.10;0.10;;;;;;;14.64;100.00;95829.78;5051390;28;20615;-79
2023/07/01 05:01:04;;;;;;;0.13;0.10;;;;;;;14.85;100.00;95822.22;5057800;28;20052;-78
2023/07/01 05:03:50;;;;;;;0.10;0.10;;;;;;;14.83;100.00;95824.41;5058131;28;20044;-79
2023/07/01 05:06:36;;;;;;;0.10;0.10;;;;;;;14.76;100.00;95830.16;5057271;28;20477;-78
2023/07/01 05:09:22;;;;;;;0.20;0.20;;;;;;;14.82;100.00;95822.81;5072543;28;20604;-79
2023/07/01 05:12:08;;;;;;;0.10;0.10;;;;;;;14.77;100.00;95807.50;5057123;28;20028;-79
2023/07/01 05:14:55;;;;;;;0.10;0.10;;;;;;;14.94;100.00;95820.47;5053024;28;20595;-79
2023/07/01 05:17:42;;;;;;;0.10;0.10;;;;;;;14.96;100.00;95811.03;5071559;28;20087;-79
2023/07/01 05:20:28;;;;;;;0.20;0.20;;;;;;;14.93;100.00;95824.25;5044480;28;20345;-78
2023/07/01 05:23:14;;;;;;;0.10;0.10;;;;;;;14.82;100.00;95814.72;5056032;28;20032;-79
2023/07/01 05:26:00;;;;;;;0.10;0.10;;;;;;;14.78;100.00;95806.41;5043200;28;20089;-79
2023/07/01 05:28:46;;;;;;;0.10;0.10;;;;;;;14.84;100.00;95807.16;5039860;28;20649;-79
2023/07/01 05:31:35;;;;;;;0.10;0.10;;;;;;;15.00;100.00;95816.63;5043191;28;20154;-79
2023/07/01 05:34:21;;;;;;;0.10;0.10;;;;;;;15.11;100.00;95817.28;5071119;28;20051;-79
2023/07/01 05:37:07;;;;;;;0.10;0.10;;;;;;;15.00;100.00;95822.00;5070663;28;20043;-79
2023/07/01 05:39:53;;;;;;;0.10;0.10;;;;;;;14.97;100.00;95811.81;5072150;28;20285;-79
2023/07/01 05:42:39;;;;;;;0.10;0.10;;;;;;;15.15;100.00;95804.81;5070204;28;20032;-80
2023/07/01 05:45:25;;;;;;;0.10;0.10;;;;;;;15.33;100.00;95812.09;5070428;28;20493;-80
2023/07/01 05:48:13;;;;;;;0.10;0.10;;;;;;;15.49;100.00;95807.25;5043890;28;20047;-81
2023/07/01 05:50:59;;;;;;;0.10;0.10;;;;;;;15.64;100.00;95796.25;5071999;28;20101;-80
2023/07/01 05:53:46;;;;;;;0.13;0.13;;;;;;;15.73;100.00;95794.47;5056427;28;20475;-81
2023/07/01 05:56:32;;;;;;;0.17;0.17;;;;;;;15.78;100.00;95780.88;5041392;28;20051;-81
2023/07/01 05:59:18;;;;;;;0.20;0.20;;;;;;;15.98;100.00;95792.41;5035418;28;20367;-80
2023/07/01 06:02:04;;;;;;;0.10;0.10;;;;;;;16.16;100.00;95796.88;5038725;28;20063;-80
2023/07/01 06:04:50;;;;;;;0.10;0.10;;;;;;;16.05;100.00;95776.59;5053549;28;20044;-80
2023/07/01 06:07:35;;;;;;;0.20;0.20;;;;;;;16.10;100.00;95793.47;5043160;28;20046;-80
2023/07/01 06:10:21;;;;;;;0.10;0.10;;;;;;;16.36;100.00;95790.31;5042358;28;20051;-80
2023/07/01 06:13:10;;;;;;;0.10;0.10;;;;;;;16.58;100.00;95782.28;5056870;28;20047;-80
2023/07/01 06:15:56;;;;;;;0.10;0.10;;;;;;;16.81;100.00;95780.47;5054160;28;20040;-80
2023/07/01 06:18:43;;;;;;;0.20;0.20;;;;;;;17.19;100.00;95775.50;5040861;28;20039;-80
2023/07/01 06:21:28;;;;;;;0.10;0.10;;;;;;;16.85;100.00;95765.22;5053856;28;20398;-80
2023/07/01 06:24:14;;;;;;;0.15;0.15;;;;;;;17.12;100.00;95772.47;5061237;28;20044;-80
2023/07/01 06:27:00;;;;;;;0.10;0.10;;;;;;;16.86;100.00;95772.22;5048056;28;20127;-80
2023/07/01 06:29:46;;;;;;;0.10;0.10;;;;;;;16.95;100.00;95759.59;5057499;28;20167;-80
2023/07/01 06:32:32;;;;;;;0.10;0.10;;;;;;;16.92;100.00;95752.09;5074182;28;20059;-80
2023/07/01 06:35:18;;;;;;;0.10;0.10;;;;;;;16.86;100.00;95755.22;5058581;28;20417;-80
2023/07/01 06:38:04;;;;;;;0.10;0.10;;;;;;;16.81;100.00;95745.34;5045905;28;20720;-80
2023/07/01 06:40:50;;;;;;;0.10;0.10;;;;;;;16.58;100.00;95763.38;5060271;28;20106;-80
2023/07/01 06:43:39;;;;;;;0.10;0.10;;;;;;;16.73;100.00;95759.56;5060184;28;20918;-79
2023/07/01 06:46:26;;;;;;;0.10;0.10;;;;;;;16.76;100.00;95745.44;5060880;28;20110;-80
2023/07/01 06:49:12;;;;;;;0.10;0.10;;;;;;;16.87;100.00;95754.13;5046229;28;20051;-79
2023/07/01 06:51:58;;;;;;;0.10;0.10;;;;;;;17.00;100.00;95750.56;5044579;28;20433;-79
2023/07/01 06:54:44;;;;;;;0.10;0.10;;;;;;;17.11;100.00;95751.13;5083009;28;20066;-79
2023/07/01 06:57:30;;;;;;;0.10;0.10;;;;;;;17.02;100.00;95755.66;5064036;28;20068;-79
2023/07/01 07:00:17;;;;;;;0.20;0.20;;;;;;;16.76;100.00;95745.44;5060319;28;20119;-79
2023/07/01 07:03:03;;;;;;;0.20;0.20;;;;;;;16.97;100.00;95746.59;5045047;28;20578;-80
2023/07/01 07:05:52;;;;;;;0.10;0.10;;;;;;;16.75;100.00;95754.66;5072419;28;20039;-79
2023/07/01 07:08:38;;;;;;;0.10;0.10;;;;;;;16.76;100.00;95753.56;5058395;28;20109;-79
2023/07/01 07:11:24;;;;;;;0.20;0.20;;;;;;;17.41;100.00;95738.75;5074805;28;20055;-79
2023/07/01 07:14:10;;;;;;;0.17;0.17;;;;;;;17.29;100.00;95746.66;5059677;28;20424;-80
2023/07/01 07:16:55;;;;;;;0.10;0.10;;;;;;;17.30;100.00;95738.22;5045818;28;20037;-80
2023/07/01 07:19:42;;;;;;;0.10;0.10;;;;;;;17.31;100.00;95750.63;5060023;28;20527;-80
2023/07/01 07:22:27;;;;;;;0.10;0.10;;;;;;;17.17;100.00;95755.31;5046925;28;20440;-79
2023/07/01 07:25:18;;;;;;;0.10;0.10;;;;;;;17.18;100.00;95756.91;5058579;28;20040;-79
2023/07/01 07:28:04;;;;;;;0.10;0.10;;;;;;;16.54;100.00;95756.16;5051348;28;20042;-79
2023/07/01 07:30:50;;;;;;;0.10;0.10;;;;;;;16.56;100.00;95749.34;5045066;28;20072;-80
2023/07/01 07:33:36;;;;;;;0.17;0.17;;;;;;;17.18;100.00;95740.69;5061363;28;20122;-79
2023/07/01 07:36:22;;;;;;;0.10;0.10;;;;;;;17.28;100.00;95745.84;5043533;28;21138;-79
2023/07/01 07:39:09;;;;;;;0.13;0.13;;;;;;;17.38;100.00;95756.41;5046295;28;20517;-79
2023/07/01 07:41:55;;;;;;;0.20;0.20;;;;;;;17.75;100.00;95749.03;5053399;28;20040;-79
2023/07/01 07:44:42;;;;;;;0.10;0.10;;;;;;;17.61;100.00;95754.47;5050743;28;20048;-80
2023/07/01 07:47:28;;;;;;;0.20;0.20;;;;;;;17.06;100.00;95753.97;5045275;28;20044;-79
2023/07/01 07:50:14;;;;;;;0.10;0.10;;;;;;;17.09;100.00;95764.16;5044825;28;20036;-79
2023/07/01 07:53:00;;;;;;;0.10;0.10;;;;;;;17.47;100.00;95754.56;5073677;28;20097;-79
2023/07/01 07:55:46;;;;;;;0.10;0.10;;;;;;;17.40;100.00;95765.00;5046515;28;20371;-79
2023/07/01 07:58:32;;;;;;;0.20;0.20;;;;;;;17.20;100.00;95758.22;5048578;28;20543;-79
2023/07/01 08:01:18;;;;;;;0.10;0.10;;;;;;;17.01;100.00;95757.56;5043179;28;20151;-79
2023/07/01 08:04:03;;;;;;;0.10;0.10;;;;;;;16.61;100.00;95764.66;5053045;28;20071;-79
2023/07/01 08:06:49;;;;;;;0.10;0.10;;;;;;;17.01;100.00;95751.38;5067003;28;20082;-80
2023/07/01 08:09:35;;;;;;;0.10;0.10;;;;;;;16.92;100.00;95748.59;5056071;28;20036;-79
2023/07/01 08:12:21;;;;;;;0.10;0.10;;;;;;;16.67;100.00;95752.66;5059504;28;20048;-79
2023/07/01 08:15:11;;;;;;;0.10;0.10;;;;;;;16.81;100.00;95752.63;5052927;28;20523;-80
2023/07/01 08:17:57;;;;;;;0.10;0.10;;;;;;;17.15;100.00;95744.00;5051418;28;20032;-79
2023/07/01 08:20:44;;;;;;;0.20;0.20;;;;;;;17.13;100.00;95736.22;5071834;28;20499;-80
2023/07/01 08:23:30;;;;;;;0.10;0.10;;;;;;;16.79;100.00;95744.03;5069208;28;20573;-79
2023/07/01 08:26:16;;;;;;;0.10;0.10;;;;;;;16.39;100.00;95741.88;5036270;28;20040;-79
2023/07/01 08:29:03;;;;;;;0.10;0.10;;;;;;;16.35;100.00;95740.91;5038054;28;20421;-81
2023/07/01 08:31:50;;;;;;;0.10;0.10;;;;;;;16.12;100.00;95756.22;5053506;28;20109;-80
2023/07/01 08:34:36;;;;;;;0.15;0.15;;;;;;;16.56;100.00;95743.16;5041487;28;20398;-79
2023/07/01 08:37:22;;;;;;;0.10;0.10;;;;;;;16.49;100.00;95746.25;5058454;28;20584;-79
2023/07/01 08:40:08;;;;;;;0.20;0.20;;;;;;;16.01;100.00;95751.31;5040043;28;20043;-80
2023/07/01 08:43:02;;;;;;;0.10;0.10;;;;;;;15.77;100.00;95746.91;5046403;28;20101;-80
2023/07/01 08:45:51;;;;;;;0.10;0.10;;;;;;;15.79;100.00;95742.00;5035275;28;20135;-80
2023/07/01 08:48:38;;;;;;;0.10;0.10;;;;;;;15.83;100.00;95740.31;5070807;28;20568;-79
2023/07/01 08:51:40;;;;;;;0.10;0.10;;;;;;;15.59;100.00;95745.84;5048144;28;20532;-79
2023/07/01 08:54:26;;;;;;;0.10;0.10;;;;;;;15.47;100.00;95744.72;5053453;28;20623;-80
2023/07/01 08:57:14;;;;;;;0.13;0.13;;;;;;;15.53;100.00;95738.94;5055843;28;20563;-80
2023/07/01 09:00:00;;;;;;;0.10;0.10;;;;;;;15.42;100.00;95736.75;5044963;28;20434;-80
2023/07/01 09:02:48;;;;;;;0.10;0.10;;;;;;;15.49;100.00;95746.03;5043069;28;20059;-80
2023/07/01 09:05:34;;;;;;;0.10;0.10;;;;;;;15.77;100.00;95733.41;5056546;27;20485;-80
2023/07/01 09:08:19;;;;;;;0.10;0.10;;;;;;;15.96;100.00;95746.03;5056905;28;20137;-80
2023/07/01 09:11:09;;;;;;;0.10;0.10;;;;;;;15.93;100.00;95741.22;5043144;28;20040;-80
2023/07/01 09:13:56;;;;;;;0.10;0.10;;;;;;;16.33;100.00;95743.09;5070973;28;20128;-79
2023/07/01 09:16:42;;;;;;;0.00;0.00;;;;;;;16.36;100.00;95733.59;5057668;28;20047;-80
2023/07/01 09:19:28;;;;;;;0.10;0.10;;;;;;;16.36;100.00;95726.31;5043596;28;20477;-80
2023/07/01 09:22:14;;;;;;;0.10;0.10;;;;;;;16.15;100.00;95725.91;5041920;28;20545;-80
2023/07/01 09:25:00;;;;;;;0.10;0.10;;;;;;;16.24;100.00;95739.50;5058082;28;20040;-80
2023/07/01 09:27:46;;;;;;;0.17;0.17;;;;;;;16.02;100.00;95731.31;5043133;28;20101;-80
2023/07/01 09:30:32;;;;;;;0.13;0.13;;;;;;;16.06;100.00;95729.63;5041864;28;20453;-79
2023/07/01 09:33:18;;;;;;;0.10;0.10;;;;;;;16.15;100.00;95722.44;5070354;28;20513;-79
2023/07/01 09:36:06;;;;;;;0.10;0.10;;;;;;;15.57;100.00;95729.19;5056743;28;20440;-79
2023/07/01 09:38:52;;;;;;;0.15;0.15;;;;;;;16.11;100.00;95726.84;5056786;28;20056;-79
2023/07/01 09:41:38;;;;;;;0.20;0.20;;;;;;;16.26;100.00;95710.31;5045082;28;20150;-79
2023/07/01 09:44:24;;;;;;;0.10;0.10;;;;;;;16.43;100.00;95715.09;5053561;28;20036;-80
2023/07/01 09:47:30;;;;;;;0.10;0.10;;;;;;;16.62;100.00;95717.66;5056968;28;20039;-78
2023/07/01 09:50:23;;;;;;;0.20;0.20;;;;;;;16.74;100.00;95715.25;5047993;28;20040;-79
2023/07/01 09:53:21;;;;;;;0.10;0.10;;;;;;;16.60;100.00;95707.16;5051829;28;20401;-79
2023/07/01 09:56:08;;;;;;;0.13;0.13;;;;;;;16.29;100.00;95714.31;5070831;28;20055;-79
2023/07/01 09:58:54;;;;;;;0.13;0.13;;;;;;;15.85;100.00;95711.13;5058562;28;20060;-79
2023/07/01 10:01:40;;;;;;;0.10;0.10;;;;;;;16.44;100.00;95712.09;5060383;28;20051;-78
2023/07/01 10:04:28;;;;;;;0.10;0.10;;;;;;;16.14;100.00;95718.94;5046602;28;20437;-79
2023/07/01 10:07:14;;;;;;;0.10;0.10;;;;;;;16.62;100.00;95717.66;5052107;28;20478;-79
2023/07/01 10:10:00;;;;;;;0.00;0.00;;;;;;;16.73;100.00;95713.66;5059446;28;20044;-79
2023/07/01 10:12:47;;;;;;;0.10;0.10;;;;;;;16.72;100.00;95701.22;5046030;28;20216;-79
2023/07/01 10:15:35;;;;;;;0.10;0.10;;;;;;;16.55;100.00;95712.66;5046074;28;20031;-79
2023/07/01 10:18:22;;;;;;;0.10;0.10;;;;;;;16.40;100.00;95710.28;5072592;28;20132;-79
2023/07/01 10:21:24;;;;;;;0.10;0.10;;;;;;;16.28;100.00;95704.63;5059249;28;20639;-81
2023/07/01 10:24:10;;;;;;;0.10;0.10;;;;;;;15.99;100.00;95707.66;5056926;28;20055;-78
2023/07/01 10:26:56;;;;;;;0.10;0.10;;;;;;;15.68;100.00;95694.75;5073930;28;20047;-79
2023/07/01 10:29:54;;;;;;;0.10;0.10;;;;;;;15.88;100.00;95699.75;5052111;28;20535;-79
2023/07/01 10:32:41;;;;;;;0.10;0.10;;;;;;;15.63;100.00;95711.03;5037847;28;20338;-79
2023/07/01 10:35:27;;;;;;;0.13;0.13;;;;;;;15.38;100.00;95704.16;5056570;28;20448;-79
2023/07/01 10:38:24;;;;;;;0.10;0.10;;;;;;;15.67;100.00;95701.25;5043359;28;20051;-79
2023/07/01 10:41:10;;;;;;;0.10;0.10;;;;;;;15.65;100.00;95711.53;5056334;28;20040;-80
2023/07/01 10:44:21;;;;;;;0.10;0.10;;;;;;;15.52;100.00;95702.31;5043406;28;20541;-79
2023/07/01 10:47:14;;;;;;;0.10;0.10;;;;;;;15.15;100.00;95716.69;5056199;28;20442;-81
2023/07/01 10:50:02;;;;;;;0.05;0.05;;;;;;;14.83;100.00;95700.53;5054349;28;20067;-80
2023/07/01 10:52:57;;;;;;;0.00;0.00;;;;;;;15.00;100.00;95722.31;5050645;28;20463;-79
2023/07/01 10:55:46;;;;;;;0.20;0.20;;;;;;;15.11;100.00;95704.91;5056404;28;20056;-78
2023/07/01 10:58:32;;;;;;;0.10;0.10;;;;;;;15.33;100.00;95726.63;5056227;28;20491;-79
2023/07/01 11:02:00;;;;;;;0.10;0.10;;;;;;;15.20;100.00;95699.66;5069524;28;20044;-79
2023/07/01 11:04:52;;;;;;;0.10;0.10;;;;;;;15.03;100.00;95710.97;4962780;28;20046;-79
2023/07/01 11:07:41;;;;;;;0.10;0.10;;;;;;;15.15;100.00;95697.03;4986425;28;20049;-79
2023/07/01 11:10:28;;;;;;;0.10;0.10;;;;;;;14.97;100.00;95701.38;5057542;28;20401;-79
2023/07/01 11:13:17;;;;;;;0.10;0.10;;;;;;;15.15;100.00;95697.81;5056735;28;20113;-80
2023/07/01 11:16:09;;;;;;;0.10;0.10;;;;;;;15.05;100.00;95698.81;5059689;28;20075;-80
2023/07/01 11:18:59;;;;;;;0.10;0.10;;;;;;;15.38;100.00;95684.50;5048648;28;20044;-79
2023/07/01 11:21:45;;;;;;;0.10;0.10;;;;;;;15.13;100.00;95705.41;5073572;28;20550;-79
2023/07/01 11:24:31;;;;;;;0.20;0.20;;;;;;;15.33;100.00;95688.91;5075050;28;20123;-79
2023/07/01 11:27:17;;;;;;;0.10;0.10;;;;;;;15.39;100.00;95681.50;5059950;28;20051;-79
2023/07/01 11:30:04;;;;;;;0.20;0.20;;;;;;;15.87;100.00;95689.25;5040312;28;20051;-80
2023/07/01 11:32:50;;;;;;;0.10;0.10;;;;;;;15.86;100.00;95684.97;5056071;28;20489;-80
2023/07/01 11:35:49;;;;;;;0.10;0.10;;;;;;;15.99;100.00;95694.16;5072989;28;20035;-79
2023/07/01 11:38:36;;;;;;;0.10;0.10;;;;;;;16.05;100.00;95688.34;5058275;28;20214;-78
2023/07/01 11:41:23;;;;;;;0.10;0.10;;;;;;;16.06;100.00;95689.16;5037632;28;20048;-80
2023/07/01 11:44:12;;;;;;;0.10;0.10;;;;;;;16.10;100.00;95674.75;5072326;28;20075;-80
2023/07/01 11:46:57;;;;;;;0.20;0.20;;;;;;;16.44;100.00;95678.91;5058461;28;20506;-79
2023/07/01 11:49:44;;;;;;;0.10;0.10;;;;;;;16.58;100.00;95686.97;5047119;28;20032;-80
2023/07/01 11:52:30;;;;;;;0.10;0.10;;;;;;;16.29;100.00;95682.72;5058408;28;20042;-79
2023/07/01 11:55:33;;;;;;;0.10;0.10;;;;;;;16.57;100.00;95677.25;5045694;28;20048;-80
2023/07/01 11:58:30;;;;;;;0.15;0.15;;;;;;;16.33;100.00;95683.69;5044103;28;20039;-80
2023/07/01 12:01:23;;;;;;;0.10;0.10;;;;;;;16.12;100.00;95688.75;5044350;28;20047;-80
2023/07/01 12:04:15;;;;;;;0.10;0.10;;;;;;;16.24;100.00;95684.72;5044548;28;20127;-79
2023/07/01 12:07:09;;;;;;;0.10;0.10;;;;;;;15.96;100.00;95689.38;5072193;28;20040;-79
2023/07/01 12:09:55;;;;;;;0.20;0.20;;;;;;;16.20;100.00;95681.84;5056267;28;20028;-79
2023/07/01 12:12:41;;;;;;;0.10;0.10;;;;;;;16.61;100.00;95667.44;5056885;28;20114;-79
2023/07/01 12:15:27;;;;;;;0.20;0.20;;;;;;;16.46;100.00;95678.59;5046641;28;20704;-79
2023/07/01 12:18:27;;;;;;;0.10;0.10;;;;;;;16.38;100.00;95682.81;5045189;28;20028;-80
2023/07/01 12:21:13;;;;;;;0.10;0.10;;;;;;;16.78;100.00;95667.59;5071676;28;20150;-79
2023/07/01 12:23:59;;;;;;;0.17;0.17;;;;;;;16.73;100.00;95680.41;5055446;28;20048;-79
2023/07/01 12:26:46;;;;;;;0.10;0.10;;;;;;;15.99;100.00;95675.28;5039639;28;20139;-79
2023/07/01 12:29:32;;;;;;;0.10;0.10;;;;;;;16.05;100.00;95682.16;5072181;28;20557;-80
2023/07/01 12:32:18;;;;;;;0.20;0.20;;;;;;;16.11;100.00;95670.16;5041099;28;20490;-79
2023/07/01 12:35:05;;;;;;;0.10;0.10;;;;;;;16.29;100.00;95671.94;5070622;28;20094;-79
2023/07/01 12:37:52;;;;;;;0.10;0.10;;;;;;;16.02;100.00;95678.16;5055785;28;20410;-79
2023/07/01 12:40:39;;;;;;;0.20;0.20;;;;;;;16.15;100.00;95676.53;5057324;28;20042;-79
2023/07/01 12:43:27;;;;;;;0.10;0.10;;;;;;;16.37;100.00;95689.31;5056138;28;20040;-79
2023/07/01 12:46:14;;;;;;;0.20;0.20;;;;;;;16.01;100.00;95662.28;5069214;28;20237;-79
2023/07/01 12:49:03;;;;;;;0.20;0.20;;;;;;;15.94;100.00;95678.06;5055725;28;20561;-79
2023/07/01 12:51:49;;;;;;;0.20;0.20;;;;;;;15.69;100.00;95674.78;5057715;28;20536;-79
2023/07/01 12:54:35;;;;;;;0.10;0.10;;;;;;;15.86;100.00;95666.88;5056012;28;20040;-79
2023/07/01 12:57:21;;;;;;;0.10;0.10;;;;;;;15.98;100.00;95668.28;5042214;28;20336;-79
2023/07/01 13:00:09;;;;;;;0.20;0.20;;;;;;;15.91;100.00;95665.19;5040731;28;20498;-79